sensor_id;sensor_type;location;lat;lon;timestamp;temperature;humidity
44851;DHT22;30583;48.714;9.386;2022-07-29T00:01:50;26.70;59.60
44851;DHT22;30583;48.714;9.386;2022-07-29T00:04:18;26.70;59.60
44851;DHT22;30583;48.714;9.386;2022-07-29T00:06:44;26.80;59.70
44851;DHT22;30583;48.714;9.386;2022-07-29T00:09:09;26.80;59.60
44851;DHT22;30583;48.714;9.386;2022-07-29T00:11:35;26.80;59.20
44851;DHT22;30583;48.714;9.386;2022-07-29T00:14:00;26.70;59.50
44851;DHT22;30583;48.714;9.386;2022-07-29T00:16:26;26.80;59.30
44851;DHT22;30583;48.714;9.386;2022-07-29T00:18:52;26.90;58.90
44851;DHT22;30583;48.714;9.386;2022-07-29T00:21:17;26.70;59.20
44851;DHT22;30583;48.714;9.386;2022-07-29T00:23:43;26.70;59.10
44851;DHT22;30583;48.714;9.386;2022-07-29T00:26:08;26.70;58.90
44851;DHT22;30583;48.714;9.386;2022-07-29T00:28:34;26.70;59.10
44851;DHT22;30583;48.714;9.386;2022-07-29T00:30:59;26.70;59.20
44851;DHT22;30583;48.714;9.386;2022-07-29T00:33:25;26.70;59.30
44851;DHT22;30583;48.714;9.386;2022-07-29T00:35:51;26.70;59.60
44851;DHT22;30583;48.714;9.386;2022-07-29T00:38:18;26.60;60.00
44851;DHT22;30583;48.714;9.386;2022-07-29T00:40:44;26.70;59.70
44851;DHT22;30583;48.714;9.386;2022-07-29T00:43:11;26.70;59.90
44851;DHT22;30583;48.714;9.386;2022-07-29T00:45:37;26.60;60.30
44851;DHT22;30583;48.714;9.386;2022-07-29T00:48:03;26.60;60.50
44851;DHT22;30583;48.714;9.386;2022-07-29T00:50:31;26.70;60.20
44851;DHT22;30583;48.714;9.386;2022-07-29T00:52:57;26.80;60.10
44851;DHT22;30583;48.714;9.386;2022-07-29T00:55:23;26.60;60.50
44851;DHT22;30583;48.714;9.386;2022-07-29T00:57:48;26.70;60.40
44851;DHT22;30583;48.714;9.386;2022-07-29T01:00:20;26.60;60.30
44851;DHT22;30583;48.714;9.386;2022-07-29T01:02:47;26.50;60.60
44851;DHT22;30583;48.714;9.386;2022-07-29T01:05:14;26.50;60.30
44851;DHT22;30583;48.714;9.386;2022-07-29T01:07:41;26.40;60.70
44851;DHT22;30583;48.714;9.386;2022-07-29T01:10:10;26.30;60.70
44851;DHT22;30583;48.714;9.386;2022-07-29T01:12:37;26.30;60.20
44851;DHT22;30583;48.714;9.386;2022-07-29T01:15:05;26.40;60.10
44851;DHT22;30583;48.714;9.386;2022-07-29T01:20:56;26.30;60.00
44851;DHT22;30583;48.714;9.386;2022-07-29T01:26:41;26.30;60.30
44851;DHT22;30583;48.714;9.386;2022-07-29T01:32:13;26.20;60.40
44851;DHT22;30583;48.714;9.386;2022-07-29T01:34:48;26.20;60.40
44851;DHT22;30583;48.714;9.386;2022-07-29T01:39:47;25.90;61.60
44851;DHT22;30583;48.714;9.386;2022-07-29T01:45:18;26.20;60.50
44851;DHT22;30583;48.714;9.386;2022-07-29T01:50:48;26.00;60.80
44851;DHT22;30583;48.714;9.386;2022-07-29T01:53:29;26.00;60.60
44851;DHT22;30583;48.714;9.386;2022-07-29T01:55:57;25.90;61.20
44851;DHT22;30583;48.714;9.386;2022-07-29T01:58:25;25.80;61.30
44851;DHT22;30583;48.714;9.386;2022-07-29T02:00:53;25.80;61.10
44851;DHT22;30583;48.714;9.386;2022-07-29T02:03:20;25.70;61.20
44851;DHT22;30583;48.714;9.386;2022-07-29T02:05:47;25.10;62.30
44851;DHT22;30583;48.714;9.386;2022-07-29T02:08:13;24.60;63.80
44851;DHT22;30583;48.714;9.386;2022-07-29T02:10:42;24.00;65.60
44851;DHT22;30583;48.714;9.386;2022-07-29T02:13:09;23.70;66.70
44851;DHT22;30583;48.714;9.386;2022-07-29T02:15:37;23.70;66.90
44851;DHT22;30583;48.714;9.386;2022-07-29T02:18:17;23.60;67.50
44851;DHT22;30583;48.714;9.386;2022-07-29T02:20:48;23.50;67.80
44851;DHT22;30583;48.714;9.386;2022-07-29T02:23:17;23.30;68.10
44851;DHT22;30583;48.714;9.386;2022-07-29T02:25:44;23.20;68.40
44851;DHT22;30583;48.714;9.386;2022-07-29T02:28:10;23.40;68.10
44851;DHT22;30583;48.714;9.386;2022-07-29T02:30:40;23.40;68.20
44851;DHT22;30583;48.714;9.386;2022-07-29T02:33:08;22.90;69.30
44851;DHT22;30583;48.714;9.386;2022-07-29T02:35:35;22.80;69.60
44851;DHT22;30583;48.714;9.386;2022-07-29T02:38:02;22.70;70.30
44851;DHT22;30583;48.714;9.386;2022-07-29T02:40:48;22.70;70.10
44851;DHT22;30583;48.714;9.386;2022-07-29T02:43:17;22.70;70.40
44851;DHT22;30583;48.714;9.386;2022-07-29T02:45:45;22.70;69.90
44851;DHT22;30583;48.714;9.386;2022-07-29T02:48:15;22.50;70.40
44851;DHT22;30583;48.714;9.386;2022-07-29T02:50:49;22.50;70.60
44851;DHT22;30583;48.714;9.386;2022-07-29T02:53:23;22.60;70.20
44851;DHT22;30583;48.714;9.386;2022-07-29T02:55:57;22.40;70.90
44851;DHT22;30583;48.714;9.386;2022-07-29T02:58:38;22.40;70.80
44851;DHT22;30583;48.714;9.386;2022-07-29T03:01:22;22.30;71.20
44851;DHT22;30583;48.714;9.386;2022-07-29T03:03:51;22.30;71.30
44851;DHT22;30583;48.714;9.386;2022-07-29T03:06:19;22.20;71.70
44851;DHT22;30583;48.714;9.386;2022-07-29T03:08:45;22.10;72.00
44851;DHT22;30583;48.714;9.386;2022-07-29T03:11:13;21.90;72.50
44851;DHT22;30583;48.714;9.386;2022-07-29T03:13:39;21.80;72.60
44851;DHT22;30583;48.714;9.386;2022-07-29T03:16:05;21.80;72.80
44851;DHT22;30583;48.714;9.386;2022-07-29T03:18:32;21.90;72.70
44851;DHT22;30583;48.714;9.386;2022-07-29T03:20:58;21.80;72.80
44851;DHT22;30583;48.714;9.386;2022-07-29T03:23:24;21.80;72.70
44851;DHT22;30583;48.714;9.386;2022-07-29T03:25:51;21.80;72.70
44851;DHT22;30583;48.714;9.386;2022-07-29T03:28:17;22.10;72.00
44851;DHT22;30583;48.714;9.386;2022-07-29T03:30:43;22.10;71.70
44851;DHT22;30583;48.714;9.386;2022-07-29T03:33:09;21.80;72.30
44851;DHT22;30583;48.714;9.386;2022-07-29T03:35:35;21.30;74.20
44851;DHT22;30583;48.714;9.386;2022-07-29T03:38:00;21.60;73.60
44851;DHT22;30583;48.714;9.386;2022-07-29T03:40:53;21.40;73.70
44851;DHT22;30583;48.714;9.386;2022-07-29T03:43:17;21.50;73.40
44851;DHT22;30583;48.714;9.386;2022-07-29T03:45:47;21.60;73.00
44851;DHT22;30583;48.714;9.386;2022-07-29T03:48:17;21.40;73.60
44851;DHT22;30583;48.714;9.386;2022-07-29T03:50:44;21.60;73.20
44851;DHT22;30583;48.714;9.386;2022-07-29T03:53:11;21.60;73.10
44851;DHT22;30583;48.714;9.386;2022-07-29T03:55:41;21.50;73.50
44851;DHT22;30583;48.714;9.386;2022-07-29T03:58:07;21.60;72.90
44851;DHT22;30583;48.714;9.386;2022-07-29T04:00:37;21.70;72.60
44851;DHT22;30583;48.714;9.386;2022-07-29T04:03:04;21.60;72.40
44851;DHT22;30583;48.714;9.386;2022-07-29T04:05:30;21.90;71.40
44851;DHT22;30583;48.714;9.386;2022-07-29T04:07:56;21.80;71.80
44851;DHT22;30583;48.714;9.386;2022-07-29T04:10:21;21.60;72.10
44851;DHT22;30583;48.714;9.386;2022-07-29T04:12:48;21.50;72.10
44851;DHT22;30583;48.714;9.386;2022-07-29T04:15:14;21.70;71.90
44851;DHT22;30583;48.714;9.386;2022-07-29T04:17:40;21.60;72.00
44851;DHT22;30583;48.714;9.386;2022-07-29T04:20:06;21.70;71.50
44851;DHT22;30583;48.714;9.386;2022-07-29T04:22:32;21.70;71.50
44851;DHT22;30583;48.714;9.386;2022-07-29T04:24:57;21.30;73.00
44851;DHT22;30583;48.714;9.386;2022-07-29T04:27:23;21.20;73.30
44851;DHT22;30583;48.714;9.386;2022-07-29T04:29:49;21.30;72.80
44851;DHT22;30583;48.714;9.386;2022-07-29T04:32:14;21.60;71.90
44851;DHT22;30583;48.714;9.386;2022-07-29T04:34:40;21.70;71.60
44851;DHT22;30583;48.714;9.386;2022-07-29T04:37:06;21.70;71.50
44851;DHT22;30583;48.714;9.386;2022-07-29T04:39:31;21.90;70.90
44851;DHT22;30583;48.714;9.386;2022-07-29T04:41:57;22.20;69.70
44851;DHT22;30583;48.714;9.386;2022-07-29T04:44:23;22.30;69.60
44851;DHT22;30583;48.714;9.386;2022-07-29T04:46:48;22.20;70.00
44851;DHT22;30583;48.714;9.386;2022-07-29T04:49:14;21.90;70.80
44851;DHT22;30583;48.714;9.386;2022-07-29T04:51:39;22.20;70.20
44851;DHT22;30583;48.714;9.386;2022-07-29T04:54:05;22.30;69.80
44851;DHT22;30583;48.714;9.386;2022-07-29T04:56:31;21.90;70.90
44851;DHT22;30583;48.714;9.386;2022-07-29T04:58:57;22.00;70.90
44851;DHT22;30583;48.714;9.386;2022-07-29T05:01:22;21.80;71.20
44851;DHT22;30583;48.714;9.386;2022-07-29T05:03:48;22.10;70.70
44851;DHT22;30583;48.714;9.386;2022-07-29T05:06:14;22.50;67.20
44851;DHT22;30583;48.714;9.386;2022-07-29T05:08:39;23.70;63.00
44851;DHT22;30583;48.714;9.386;2022-07-29T05:11:05;23.70;63.80
44851;DHT22;30583;48.714;9.386;2022-07-29T05:13:30;23.80;63.60
44851;DHT22;30583;48.714;9.386;2022-07-29T05:15:56;23.90;63.40
44851;DHT22;30583;48.714;9.386;2022-07-29T05:18:24;24.00;63.10
44851;DHT22;30583;48.714;9.386;2022-07-29T05:20:50;23.90;63.60
44851;DHT22;30583;48.714;9.386;2022-07-29T05:23:16;24.00;63.50
44851;DHT22;30583;48.714;9.386;2022-07-29T05:25:41;24.00;63.20
44851;DHT22;30583;48.714;9.386;2022-07-29T05:28:07;24.10;63.10
44851;DHT22;30583;48.714;9.386;2022-07-29T05:30:32;24.10;63.10
44851;DHT22;30583;48.714;9.386;2022-07-29T05:32:58;24.10;63.30
44851;DHT22;30583;48.714;9.386;2022-07-29T05:35:23;24.20;63.40
44851;DHT22;30583;48.714;9.386;2022-07-29T05:37:49;23.50;66.70
44851;DHT22;30583;48.714;9.386;2022-07-29T05:40:15;22.90;69.00
44851;DHT22;30583;48.714;9.386;2022-07-29T05:42:41;22.30;71.00
44851;DHT22;30583;48.714;9.386;2022-07-29T05:45:07;22.30;71.50
44851;DHT22;30583;48.714;9.386;2022-07-29T05:47:33;22.40;71.50
44851;DHT22;30583;48.714;9.386;2022-07-29T05:49:59;22.40;71.80
44851;DHT22;30583;48.714;9.386;2022-07-29T05:52:24;22.40;71.70
44851;DHT22;30583;48.714;9.386;2022-07-29T05:54:50;22.20;72.50
44851;DHT22;30583;48.714;9.386;2022-07-29T05:57:21;22.20;72.60
44851;DHT22;30583;48.714;9.386;2022-07-29T05:59:48;21.80;73.40
44851;DHT22;30583;48.714;9.386;2022-07-29T06:02:14;21.90;72.90
44851;DHT22;30583;48.714;9.386;2022-07-29T06:04:40;22.00;72.70
44851;DHT22;30583;48.714;9.386;2022-07-29T06:07:06;22.10;72.40
44851;DHT22;30583;48.714;9.386;2022-07-29T06:09:32;22.00;72.50
44851;DHT22;30583;48.714;9.386;2022-07-29T06:11:58;21.70;73.20
44851;DHT22;30583;48.714;9.386;2022-07-29T06:14:24;21.70;73.00
44851;DHT22;30583;48.714;9.386;2022-07-29T06:16:50;22.20;71.70
44851;DHT22;30583;48.714;9.386;2022-07-29T06:19:16;22.00;72.10
44851;DHT22;30583;48.714;9.386;2022-07-29T06:21:45;21.80;73.20
44851;DHT22;30583;48.714;9.386;2022-07-29T06:24:13;21.90;72.70
44851;DHT22;30583;48.714;9.386;2022-07-29T06:26:39;21.90;72.90
44851;DHT22;30583;48.714;9.386;2022-07-29T06:29:05;22.10;72.20
44851;DHT22;30583;48.714;9.386;2022-07-29T06:31:31;22.20;72.20
44851;DHT22;30583;48.714;9.386;2022-07-29T06:33:56;22.00;72.90
44851;DHT22;30583;48.714;9.386;2022-07-29T06:36:22;22.20;72.30
44851;DHT22;30583;48.714;9.386;2022-07-29T06:38:48;21.70;73.10
44851;DHT22;30583;48.714;9.386;2022-07-29T06:41:13;21.60;74.00
44851;DHT22;30583;48.714;9.386;2022-07-29T06:43:42;22.00;73.00
44851;DHT22;30583;48.714;9.386;2022-07-29T06:46:11;22.10;72.60
44851;DHT22;30583;48.714;9.386;2022-07-29T06:48:37;22.30;72.30
44851;DHT22;30583;48.714;9.386;2022-07-29T06:51:04;22.70;71.30
44851;DHT22;30583;48.714;9.386;2022-07-29T06:53:31;22.70;70.90
44851;DHT22;30583;48.714;9.386;2022-07-29T06:55:57;22.40;71.90
44851;DHT22;30583;48.714;9.386;2022-07-29T06:58:24;22.60;71.20
44851;DHT22;30583;48.714;9.386;2022-07-29T07:00:51;22.30;72.40
44851;DHT22;30583;48.714;9.386;2022-07-29T07:03:17;22.20;73.00
44851;DHT22;30583;48.714;9.386;2022-07-29T07:05:43;22.30;73.00
44851;DHT22;30583;48.714;9.386;2022-07-29T07:08:09;22.40;72.50
44851;DHT22;30583;48.714;9.386;2022-07-29T07:10:35;22.70;71.70
44851;DHT22;30583;48.714;9.386;2022-07-29T07:13:01;22.70;71.90
44851;DHT22;30583;48.714;9.386;2022-07-29T07:15:28;22.50;72.20
44851;DHT22;30583;48.714;9.386;2022-07-29T07:17:54;22.60;71.40
44851;DHT22;30583;48.714;9.386;2022-07-29T07:20:19;22.40;71.90
44851;DHT22;30583;48.714;9.386;2022-07-29T07:22:45;22.50;71.60
44851;DHT22;30583;48.714;9.386;2022-07-29T07:25:11;22.60;70.90
44851;DHT22;30583;48.714;9.386;2022-07-29T07:27:37;22.40;70.40
44851;DHT22;30583;48.714;9.386;2022-07-29T07:30:05;22.50;70.60
44851;DHT22;30583;48.714;9.386;2022-07-29T07:32:32;22.80;69.50
44851;DHT22;30583;48.714;9.386;2022-07-29T07:34:57;22.90;70.70
44851;DHT22;30583;48.714;9.386;2022-07-29T07:37:24;22.90;70.70
44851;DHT22;30583;48.714;9.386;2022-07-29T07:39:51;22.40;72.00
44851;DHT22;30583;48.714;9.386;2022-07-29T07:42:16;22.50;71.00
44851;DHT22;30583;48.714;9.386;2022-07-29T07:44:42;22.40;70.80
44851;DHT22;30583;48.714;9.386;2022-07-29T07:47:08;22.50;70.90
44851;DHT22;30583;48.714;9.386;2022-07-29T07:49:33;22.60;70.50
44851;DHT22;30583;48.714;9.386;2022-07-29T07:51:59;22.90;69.20
44851;DHT22;30583;48.714;9.386;2022-07-29T07:54:25;23.20;69.00
44851;DHT22;30583;48.714;9.386;2022-07-29T07:56:51;23.30;68.50
44851;DHT22;30583;48.714;9.386;2022-07-29T07:59:16;23.30;68.40
44851;DHT22;30583;48.714;9.386;2022-07-29T08:01:42;23.40;68.40
44851;DHT22;30583;48.714;9.386;2022-07-29T08:04:08;23.60;67.30
44851;DHT22;30583;48.714;9.386;2022-07-29T08:06:34;23.40;68.10
44851;DHT22;30583;48.714;9.386;2022-07-29T08:09:02;23.60;67.20
44851;DHT22;30583;48.714;9.386;2022-07-29T08:11:27;23.40;68.10
44851;DHT22;30583;48.714;9.386;2022-07-29T08:13:54;23.10;69.70
44851;DHT22;30583;48.714;9.386;2022-07-29T08:16:19;23.30;68.90
44851;DHT22;30583;48.714;9.386;2022-07-29T08:18:46;23.70;67.60
44851;DHT22;30583;48.714;9.386;2022-07-29T08:21:12;24.00;68.10
44851;DHT22;30583;48.714;9.386;2022-07-29T08:23:38;23.90;67.20
44851;DHT22;30583;48.714;9.386;2022-07-29T08:26:08;24.20;66.60
44851;DHT22;30583;48.714;9.386;2022-07-29T08:28:38;24.30;67.00
44851;DHT22;30583;48.714;9.386;2022-07-29T08:31:03;24.30;65.30
44851;DHT22;30583;48.714;9.386;2022-07-29T08:33:29;24.30;65.60
44851;DHT22;30583;48.714;9.386;2022-07-29T08:35:55;24.40;65.10
44851;DHT22;30583;48.714;9.386;2022-07-29T08:38:20;24.20;67.30
44851;DHT22;30583;48.714;9.386;2022-07-29T08:40:46;24.20;67.90
44851;DHT22;30583;48.714;9.386;2022-07-29T08:43:11;24.50;67.20
44851;DHT22;30583;48.714;9.386;2022-07-29T08:45:48;24.10;66.40
44851;DHT22;30583;48.714;9.386;2022-07-29T08:48:20;24.30;66.60
44851;DHT22;30583;48.714;9.386;2022-07-29T08:50:47;24.70;66.30
44851;DHT22;30583;48.714;9.386;2022-07-29T08:53:15;24.90;65.70
44851;DHT22;30583;48.714;9.386;2022-07-29T08:55:43;24.70;65.20
44851;DHT22;30583;48.714;9.386;2022-07-29T08:58:09;25.10;63.10
44851;DHT22;30583;48.714;9.386;2022-07-29T09:00:37;25.10;62.30
44851;DHT22;30583;48.714;9.386;2022-07-29T09:03:04;25.20;63.40
44851;DHT22;30583;48.714;9.386;2022-07-29T09:05:31;25.10;63.50
44851;DHT22;30583;48.714;9.386;2022-07-29T09:07:57;25.10;64.80
44851;DHT22;30583;48.714;9.386;2022-07-29T09:10:23;25.30;64.40
44851;DHT22;30583;48.714;9.386;2022-07-29T09:12:48;25.30;61.90
44851;DHT22;30583;48.714;9.386;2022-07-29T09:15:14;25.20;63.20
44851;DHT22;30583;48.714;9.386;2022-07-29T09:17:47;25.30;63.00
44851;DHT22;30583;48.714;9.386;2022-07-29T09:20:14;25.50;64.80
44851;DHT22;30583;48.714;9.386;2022-07-29T09:22:40;25.90;62.20
44851;DHT22;30583;48.714;9.386;2022-07-29T09:25:06;25.90;62.20
44851;DHT22;30583;48.714;9.386;2022-07-29T09:27:32;26.00;61.00
44851;DHT22;30583;48.714;9.386;2022-07-29T09:30:00;26.10;61.40
44851;DHT22;30583;48.714;9.386;2022-07-29T09:32:26;26.00;61.30
44851;DHT22;30583;48.714;9.386;2022-07-29T09:35:22;26.00;62.00
44851;DHT22;30583;48.714;9.386;2022-07-29T09:37:48;26.30;60.30
44851;DHT22;30583;48.714;9.386;2022-07-29T09:40:16;26.50;60.00
44851;DHT22;30583;48.714;9.386;2022-07-29T09:42:42;26.50;59.30
44851;DHT22;30583;48.714;9.386;2022-07-29T09:45:09;26.70;59.00
44851;DHT22;30583;48.714;9.386;2022-07-29T09:47:41;26.70;57.50
44851;DHT22;30583;48.714;9.386;2022-07-29T09:50:07;26.60;57.80
44851;DHT22;30583;48.714;9.386;2022-07-29T09:52:50;26.80;57.60
44851;DHT22;30583;48.714;9.386;2022-07-29T09:55:17;26.70;57.40
44851;DHT22;30583;48.714;9.386;2022-07-29T09:57:44;26.80;57.00
44851;DHT22;30583;48.714;9.386;2022-07-29T10:00:15;26.70;57.70
44851;DHT22;30583;48.714;9.386;2022-07-29T10:02:44;26.90;57.40
44851;DHT22;30583;48.714;9.386;2022-07-29T10:05:25;26.80;57.70
44851;DHT22;30583;48.714;9.386;2022-07-29T10:07:52;26.80;57.50
44851;DHT22;30583;48.714;9.386;2022-07-29T10:10:26;26.70;56.80
44851;DHT22;30583;48.714;9.386;2022-07-29T10:13:02;26.70;57.00
44851;DHT22;30583;48.714;9.386;2022-07-29T10:15:30;26.80;56.60
44851;DHT22;30583;48.714;9.386;2022-07-29T10:17:59;27.20;57.70
44851;DHT22;30583;48.714;9.386;2022-07-29T10:20:26;27.50;55.40
44851;DHT22;30583;48.714;9.386;2022-07-29T10:22:53;27.20;56.40
44851;DHT22;30583;48.714;9.386;2022-07-29T10:25:20;27.00;55.20
44851;DHT22;30583;48.714;9.386;2022-07-29T10:27:46;26.70;56.70
44851;DHT22;30583;48.714;9.386;2022-07-29T10:30:14;27.10;56.30
44851;DHT22;30583;48.714;9.386;2022-07-29T10:35:30;27.30;55.40
44851;DHT22;30583;48.714;9.386;2022-07-29T10:38:02;27.70;55.30
44851;DHT22;30583;48.714;9.386;2022-07-29T10:43:29;28.10;52.50
44851;DHT22;30583;48.714;9.386;2022-07-29T10:45:59;27.50;53.30
44851;DHT22;30583;48.714;9.386;2022-07-29T10:48:26;27.60;54.60
44851;DHT22;30583;48.714;9.386;2022-07-29T10:53:18;27.60;54.60
44851;DHT22;30583;48.714;9.386;2022-07-29T10:55:46;27.60;54.80
44851;DHT22;30583;48.714;9.386;2022-07-29T11:00:41;27.50;55.00
44851;DHT22;30583;48.714;9.386;2022-07-29T11:03:06;27.50;53.20
44851;DHT22;30583;48.714;9.386;2022-07-29T11:05:52;27.20;54.10
44851;DHT22;30583;48.714;9.386;2022-07-29T11:08:20;27.20;53.80
44851;DHT22;30583;48.714;9.386;2022-07-29T11:10:49;27.30;53.60
44851;DHT22;30583;48.714;9.386;2022-07-29T11:16:09;27.20;54.70
44851;DHT22;30583;48.714;9.386;2022-07-29T11:18:35;27.10;54.20
44851;DHT22;30583;48.714;9.386;2022-07-29T11:21:00;27.00;54.30
44851;DHT22;30583;48.714;9.386;2022-07-29T11:23:33;26.80;54.90
44851;DHT22;30583;48.714;9.386;2022-07-29T11:26:19;26.80;54.00
44851;DHT22;30583;48.714;9.386;2022-07-29T11:31:41;26.70;54.70
44851;DHT22;30583;48.714;9.386;2022-07-29T11:40:08;25.80;48.20
44851;DHT22;30583;48.714;9.386;2022-07-29T11:42:37;24.20;50.20
44851;DHT22;30583;48.714;9.386;2022-07-29T11:45:09;23.30;59.40
44851;DHT22;30583;48.714;9.386;2022-07-29T11:47:37;21.20;64.90
44851;DHT22;30583;48.714;9.386;2022-07-29T11:50:05;20.20;71.40
44851;DHT22;30583;48.714;9.386;2022-07-29T11:52:44;20.90;68.30
44851;DHT22;30583;48.714;9.386;2022-07-29T11:55:16;20.80;68.70
44851;DHT22;30583;48.714;9.386;2022-07-29T11:57:53;20.30;69.00
44851;DHT22;30583;48.714;9.386;2022-07-29T12:02:51;21.50;65.40
44851;DHT22;30583;48.714;9.386;2022-07-29T12:05:17;22.80;67.20
44851;DHT22;30583;48.714;9.386;2022-07-29T12:07:43;23.00;68.00
44851;DHT22;30583;48.714;9.386;2022-07-29T12:10:09;23.70;66.10
44851;DHT22;30583;48.714;9.386;2022-07-29T12:12:35;24.10;65.10
44851;DHT22;30583;48.714;9.386;2022-07-29T12:15:18;24.30;65.70
44851;DHT22;30583;48.714;9.386;2022-07-29T12:17:46;24.40;65.00
44851;DHT22;30583;48.714;9.386;2022-07-29T12:20:12;24.50;64.00
44851;DHT22;30583;48.714;9.386;2022-07-29T12:22:40;24.50;64.90
44851;DHT22;30583;48.714;9.386;2022-07-29T12:25:12;24.70;64.30
44851;DHT22;30583;48.714;9.386;2022-07-29T12:27:39;24.70;65.20
44851;DHT22;30583;48.714;9.386;2022-07-29T12:30:07;24.90;63.00
44851;DHT22;30583;48.714;9.386;2022-07-29T12:35:19;24.40;63.10
44851;DHT22;30583;48.714;9.386;2022-07-29T12:37:46;24.30;64.60
44851;DHT22;30583;48.714;9.386;2022-07-29T12:40:15;24.60;64.20
44851;DHT22;30583;48.714;9.386;2022-07-29T12:43:11;24.90;63.50
44851;DHT22;30583;48.714;9.386;2022-07-29T12:45:39;24.70;65.10
44851;DHT22;30583;48.714;9.386;2022-07-29T12:48:05;24.30;65.00
44851;DHT22;30583;48.714;9.386;2022-07-29T12:50:34;24.40;62.90
44851;DHT22;30583;48.714;9.386;2022-07-29T12:53:11;24.40;64.40
44851;DHT22;30583;48.714;9.386;2022-07-29T12:55:45;24.30;65.10
44851;DHT22;30583;48.714;9.386;2022-07-29T12:58:26;24.40;64.50
44851;DHT22;30583;48.714;9.386;2022-07-29T13:04:01;24.20;65.40
44851;DHT22;30583;48.714;9.386;2022-07-29T13:06:32;24.20;65.90
44851;DHT22;30583;48.714;9.386;2022-07-29T13:09:05;24.30;66.00
44851;DHT22;30583;48.714;9.386;2022-07-29T13:11:40;24.40;65.60
44851;DHT22;30583;48.714;9.386;2022-07-29T13:14:09;24.30;66.30
44851;DHT22;30583;48.714;9.386;2022-07-29T13:16:36;24.30;66.70
44851;DHT22;30583;48.714;9.386;2022-07-29T13:19:11;24.50;65.70
44851;DHT22;30583;48.714;9.386;2022-07-29T13:21:37;24.60;66.20
44851;DHT22;30583;48.714;9.386;2022-07-29T13:24:05;24.70;66.30
44851;DHT22;30583;48.714;9.386;2022-07-29T13:26:31;24.70;65.70
44851;DHT22;30583;48.714;9.386;2022-07-29T13:28:56;24.70;65.40
44851;DHT22;30583;48.714;9.386;2022-07-29T13:31:23;24.50;66.40
44851;DHT22;30583;48.714;9.386;2022-07-29T13:33:49;24.70;66.70
44851;DHT22;30583;48.714;9.386;2022-07-29T13:36:14;24.70;65.80
44851;DHT22;30583;48.714;9.386;2022-07-29T13:38:40;24.70;65.90
44851;DHT22;30583;48.714;9.386;2022-07-29T13:41:06;24.80;66.00
44851;DHT22;30583;48.714;9.386;2022-07-29T13:43:31;24.80;66.70
44851;DHT22;30583;48.714;9.386;2022-07-29T13:45:57;24.70;65.30
44851;DHT22;30583;48.714;9.386;2022-07-29T13:48:22;24.70;65.50
44851;DHT22;30583;48.714;9.386;2022-07-29T13:50:48;24.70;65.40
44851;DHT22;30583;48.714;9.386;2022-07-29T13:53:14;24.60;66.80
44851;DHT22;30583;48.714;9.386;2022-07-29T13:55:40;25.00;65.50
44851;DHT22;30583;48.714;9.386;2022-07-29T13:58:05;25.10;65.50
44851;DHT22;30583;48.714;9.386;2022-07-29T14:00:31;25.10;66.00
44851;DHT22;30583;48.714;9.386;2022-07-29T14:02:56;25.10;66.40
44851;DHT22;30583;48.714;9.386;2022-07-29T14:05:22;25.30;66.00
44851;DHT22;30583;48.714;9.386;2022-07-29T14:07:48;25.10;67.30
44851;DHT22;30583;48.714;9.386;2022-07-29T14:10:14;25.50;66.40
44851;DHT22;30583;48.714;9.386;2022-07-29T14:12:39;25.60;66.10
44851;DHT22;30583;48.714;9.386;2022-07-29T14:15:07;25.70;66.00
44851;DHT22;30583;48.714;9.386;2022-07-29T14:17:33;25.60;65.20
44851;DHT22;30583;48.714;9.386;2022-07-29T14:19:58;25.70;63.80
44851;DHT22;30583;48.714;9.386;2022-07-29T14:22:24;25.70;64.60
44851;DHT22;30583;48.714;9.386;2022-07-29T14:24:50;25.80;63.40
44851;DHT22;30583;48.714;9.386;2022-07-29T14:27:16;25.80;63.30
44851;DHT22;30583;48.714;9.386;2022-07-29T14:29:41;25.90;63.40
44851;DHT22;30583;48.714;9.386;2022-07-29T14:32:08;25.80;64.30
44851;DHT22;30583;48.714;9.386;2022-07-29T14:34:36;25.90;65.40
44851;DHT22;30583;48.714;9.386;2022-07-29T14:37:02;25.70;66.30
44851;DHT22;30583;48.714;9.386;2022-07-29T14:39:30;25.90;65.90
44851;DHT22;30583;48.714;9.386;2022-07-29T14:41:56;25.80;65.90
44851;DHT22;30583;48.714;9.386;2022-07-29T14:44:22;25.90;65.70
44851;DHT22;30583;48.714;9.386;2022-07-29T14:46:47;26.00;64.50
44851;DHT22;30583;48.714;9.386;2022-07-29T14:49:13;26.20;64.20
44851;DHT22;30583;48.714;9.386;2022-07-29T14:51:38;26.20;64.00
44851;DHT22;30583;48.714;9.386;2022-07-29T14:54:04;26.20;63.60
44851;DHT22;30583;48.714;9.386;2022-07-29T14:56:30;26.00;63.60
44851;DHT22;30583;48.714;9.386;2022-07-29T14:58:58;26.10;64.10
44851;DHT22;30583;48.714;9.386;2022-07-29T15:01:24;26.10;63.90
44851;DHT22;30583;48.714;9.386;2022-07-29T15:03:50;26.20;64.40
44851;DHT22;30583;48.714;9.386;2022-07-29T15:06:16;26.20;63.80
44851;DHT22;30583;48.714;9.386;2022-07-29T15:08:41;26.10;63.70
44851;DHT22;30583;48.714;9.386;2022-07-29T15:11:07;26.10;63.60
44851;DHT22;30583;48.714;9.386;2022-07-29T15:13:33;26.20;63.20
44851;DHT22;30583;48.714;9.386;2022-07-29T15:15:59;26.20;63.70
44851;DHT22;30583;48.714;9.386;2022-07-29T15:18:25;26.30;63.20
44851;DHT22;30583;48.714;9.386;2022-07-29T15:20:50;26.20;63.50
44851;DHT22;30583;48.714;9.386;2022-07-29T15:23:16;26.20;64.90
44851;DHT22;30583;48.714;9.386;2022-07-29T15:25:41;26.00;65.90
44851;DHT22;30583;48.714;9.386;2022-07-29T15:28:07;26.10;66.00
44851;DHT22;30583;48.714;9.386;2022-07-29T15:30:34;26.20;65.80
44851;DHT22;30583;48.714;9.386;2022-07-29T15:33:01;26.10;66.50
44851;DHT22;30583;48.714;9.386;2022-07-29T15:35:27;26.10;67.00
44851;DHT22;30583;48.714;9.386;2022-07-29T15:37:52;26.20;66.40
44851;DHT22;30583;48.714;9.386;2022-07-29T15:40:18;26.20;65.50
44851;DHT22;30583;48.714;9.386;2022-07-29T15:42:44;26.30;65.90
44851;DHT22;30583;48.714;9.386;2022-07-29T15:45:09;26.30;66.30
44851;DHT22;30583;48.714;9.386;2022-07-29T15:47:35;26.20;66.70
44851;DHT22;30583;48.714;9.386;2022-07-29T15:50:02;26.20;66.20
44851;DHT22;30583;48.714;9.386;2022-07-29T15:52:28;26.30;65.50
44851;DHT22;30583;48.714;9.386;2022-07-29T15:54:55;26.40;66.30
44851;DHT22;30583;48.714;9.386;2022-07-29T15:57:21;26.20;66.40
44851;DHT22;30583;48.714;9.386;2022-07-29T15:59:47;26.40;65.40
44851;DHT22;30583;48.714;9.386;2022-07-29T16:02:12;26.40;65.90
44851;DHT22;30583;48.714;9.386;2022-07-29T16:04:38;26.20;67.20
44851;DHT22;30583;48.714;9.386;2022-07-29T16:07:04;26.30;66.90
44851;DHT22;30583;48.714;9.386;2022-07-29T16:09:29;26.30;67.20
44851;DHT22;30583;48.714;9.386;2022-07-29T16:11:55;26.60;64.70
44851;DHT22;30583;48.714;9.386;2022-07-29T16:14:21;26.70;66.10
44851;DHT22;30583;48.714;9.386;2022-07-29T16:16:47;26.70;65.30
44851;DHT22;30583;48.714;9.386;2022-07-29T16:19:13;26.70;65.30
44851;DHT22;30583;48.714;9.386;2022-07-29T16:21:39;26.80;65.00